CheckWX is a tool to help pilots better visualize weather data.  It is not intended as a substitute for an official pre-flight weather briefing.

04:48:50 UTC

KFSM METAR
Fort Smith Regional Airport
Fort Smith, Arkansas, USA
Current

56 mins ago

KFSM 180353Z AUTO 15004KT 10SM CLR 30/23 A2986 RMK AO2 SLP104 T03000228
Observed
Aug-18 @ 03:53 UTC
Wind
  • 150° at 4 KTS
Visibility
10 SM
Flight Rules
VFR
Cloud Levels
  • Clear skies
Temperature
30°C / 86°F
Dewpoint
23°C / 73°F
Heat Index
34°C / 93°F
Humidity
66%
Altimeter
29.86" Hg
Pressure
1011.22 hPa
Previous

2 hours ago

KFSM 180253Z 14006KT 10SM CLR 31/22 A2984 RMK AO2 SLP099 T03060217 53014
Observed
Aug-18 @ 02:53 UTC
Wind
  • 140° at 6 KTS
Visibility
10 SM
Flight Rules
VFR
Cloud Levels
  • Clear skies
Temperature
31°C / 88°F
Dewpoint
22°C / 72°F
Heat Index
35°C / 95°F
Humidity
59%
Altimeter
29.84" Hg
Pressure
1010.52 hPa
Previous

3 hours ago

KFSM 180153Z 16008KT 10SM CLR 32/21 A2981 RMK AO2 SLP089 T03220211
Observed
Aug-18 @ 01:53 UTC
Wind
  • 160° at 8 KTS
Visibility
10 SM
Flight Rules
VFR
Cloud Levels
  • Clear skies
Temperature
32°C / 90°F
Dewpoint
21°C / 70°F
Heat Index
36°C / 96°F
Humidity
52%
Altimeter
29.81" Hg
Pressure
1009.52 hPa